Time;durP1;ratioP1;P1;durP2;ratioP2;P2;SDS_P1;SDS_P2;PMS_P1;PMS_P2;Temp;Humidity;BMP_temperature;BMP_pressure;BME280_temperature;BME280_humidity;BME280_pressure;Samples;Min_cycle;Max_cycle;Signal;HPM_P1;HPM_P2
2024/01/27 00:00:51;;;;;;;15.00;2.03;;;5.00;99.90;;;;;;4971112;28;21015;-65
2024/01/27 00:03:18;;;;;;;14.37;2.97;;;5.00;99.90;;;;;;5026853;28;20232;-65
2024/01/27 00:05:45;;;;;;;9.33;2.40;;;4.70;99.90;;;;;;5021060;28;20233;-65
2024/01/27 00:08:12;;;;;;;18.70;2.83;;;5.00;99.90;;;;;;5021073;28;20218;-65
2024/01/27 00:10:40;;;;;;;14.73;2.40;;;;;;;;;;5025889;28;20312;-64
2024/01/27 00:13:07;;;;;;;12.27;2.20;;;5.00;99.90;;;;;;5028406;28;20537;-65
2024/01/27 00:15:34;;;;;;;15.20;2.40;;;5.00;99.90;;;;;;4998731;28;20208;-65
2024/01/27 00:18:02;;;;;;;11.50;2.60;;;5.00;99.90;;;;;;5013941;28;20622;-65
2024/01/27 00:20:28;;;;;;;10.70;2.37;;;5.00;99.90;;;;;;5025507;28;20333;-64
2024/01/27 00:22:55;;;;;;;13.03;2.47;;;5.00;99.90;;;;;;5034478;28;20587;-65
2024/01/27 00:25:22;;;;;;;15.87;3.03;;;5.00;99.90;;;;;;5034901;28;20475;-65
2024/01/27 00:27:50;;;;;;;13.77;2.60;;;5.00;99.90;;;;;;5034765;28;20203;-64
2024/01/27 00:30:17;;;;;;;21.07;2.97;;;5.40;99.90;;;;;;5003167;28;20421;-65
2024/01/27 00:32:44;;;;;;;12.77;2.23;;;5.00;99.90;;;;;;5012723;28;20212;-65
2024/01/27 00:35:14;;;;;;;15.40;1.97;;;4.90;99.90;;;;;;5031688;28;20226;-65
2024/01/27 00:37:41;;;;;;;13.27;2.33;;;4.90;99.90;;;;;;5031597;28;20334;-65
2024/01/27 00:40:10;;;;;;;13.60;3.67;;;4.80;99.90;;;;;;5035341;28;20201;-65
2024/01/27 00:42:37;;;;;;;11.67;2.37;;;4.90;99.90;;;;;;5035241;28;20206;-64
2024/01/27 00:45:07;;;;;;;7.30;2.20;;;4.80;99.90;;;;;;5000926;28;20237;-65
2024/01/27 00:47:34;;;;;;;17.60;2.43;;;4.80;99.90;;;;;;5024651;28;20213;-64
2024/01/27 00:50:01;;;;;;;14.70;2.93;;;5.10;99.90;;;;;;5027333;28;20197;-64
2024/01/27 00:52:28;;;;;;;17.00;2.40;;;4.20;99.90;;;;;;5029464;28;20749;-65
2024/01/27 00:54:55;;;;;;;10.23;2.20;;;4.80;99.90;;;;;;5035285;28;20202;-64
2024/01/27 00:57:21;;;;;;;9.87;2.17;;;4.80;99.90;;;;;;5037614;28;20328;-65
2024/01/27 00:59:48;;;;;;;12.03;2.17;;;4.80;99.90;;;;;;5038474;28;20200;-65
2024/01/27 01:02:16;;;;;;;9.30;2.43;;;4.80;99.90;;;;;;4994165;28;20238;-65
2024/01/27 01:04:44;;;;;;;12.53;2.20;;;4.80;99.90;;;;;;5017782;28;20704;-65
2024/01/27 01:07:11;;;;;;;15.90;2.03;;;4.70;99.90;;;;;;5037163;28;20203;-65
2024/01/27 01:09:38;;;;;;;7.60;2.87;;;4.80;99.90;;;;;;5024802;28;20459;-65
2024/01/27 01:12:06;;;;;;;20.77;2.67;;;4.70;99.90;;;;;;5035164;28;20199;-64
2024/01/27 01:14:33;;;;;;;12.47;2.63;;;4.70;99.90;;;;;;5033782;28;20248;-65
2024/01/27 01:17:00;;;;;;;21.83;2.63;;;4.80;99.90;;;;;;5006260;28;20278;-65
2024/01/27 01:19:28;;;;;;;14.13;3.00;;;4.60;99.90;;;;;;5016139;28;20323;-65
2024/01/27 01:21:55;;;;;;;15.77;2.67;;;4.70;99.90;;;;;;5034751;28;20258;-65
2024/01/27 01:24:22;;;;;;;15.47;2.97;;;4.70;99.90;;;;;;5033792;28;20215;-65
2024/01/27 01:26:49;;;;;;;8.13;2.27;;;4.70;99.90;;;;;;5043666;28;20224;-65
2024/01/27 01:29:16;;;;;;;13.63;3.00;;;4.70;99.90;;;;;;5043155;28;20207;-64
2024/01/27 01:31:43;;;;;;;11.40;2.40;;;4.70;99.90;;;;;;5007513;28;20201;-64
2024/01/27 01:34:10;;;;;;;13.17;2.00;;;4.70;99.90;;;;;;5043468;28;20207;-65
2024/01/27 01:36:38;;;;;;;12.37;2.83;;;4.70;99.90;;;;;;5027289;28;20330;-64
2024/01/27 01:39:05;;;;;;;13.20;3.43;;;4.70;99.90;;;;;;5039208;28;21145;-64
2024/01/27 01:41:32;;;;;;;16.73;2.67;;;4.70;99.90;;;;;;5026297;28;20199;-65
2024/01/27 01:43:59;;;;;;;18.00;2.70;;;4.70;99.90;;;;;;5036501;28;20199;-65
2024/01/27 01:46:26;;;;;;;10.80;2.40;;;4.70;99.90;;;;;;5013114;28;20217;-65
2024/01/27 01:48:53;;;;;;;17.10;3.30;;;4.70;99.90;;;;;;5033637;28;20317;-65
2024/01/27 01:51:20;;;;;;;13.13;2.77;;;4.70;99.90;;;;;;5028661;28;20208;-64
2024/01/27 01:53:50;;;;;;;10.60;2.37;;;4.70;99.90;;;;;;5038815;28;20750;-65
2024/01/27 01:56:16;;;;;;;12.33;2.30;;;4.70;99.90;;;;;;5030058;28;20208;-65
2024/01/27 01:58:43;;;;;;;7.83;2.17;;;4.70;99.90;;;;;;5036664;28;20203;-65
2024/01/27 02:01:11;;;;;;;13.60;3.13;;;4.60;99.90;;;;;;5041508;28;20206;-64
2024/01/27 02:03:38;;;;;;;11.67;2.70;;;4.60;99.90;;;;;;5004431;28;20615;-64
2024/01/27 02:06:05;;;;;;;12.20;2.50;;;4.60;99.90;;;;;;5026954;28;20229;-65
2024/01/27 02:08:31;;;;;;;14.30;3.43;;;4.70;99.90;;;;;;5035868;28;20828;-65
2024/01/27 02:11:02;;;;;;;7.93;2.87;;;4.60;99.90;;;;;;5030847;28;20207;-65
2024/01/27 02:13:29;;;;;;;10.73;2.60;;;4.70;99.90;;;;;;5034798;28;20221;-64
2024/01/27 02:15:56;;;;;;;9.20;2.03;;;4.70;99.90;;;;;;5039647;28;20285;-64
2024/01/27 02:18:23;;;;;;;11.53;2.40;;;4.70;99.90;;;;;;5007514;28;20300;-65
2024/01/27 02:20:49;;;;;;;11.70;2.40;;;4.70;99.90;;;;;;5028862;28;20322;-65
2024/01/27 02:23:16;;;;;;;10.27;1.97;;;4.70;99.90;;;;;;5039883;28;20625;-64
2024/01/27 02:25:45;;;;;;;24.50;2.60;;;4.60;99.90;;;;;;5038716;28;20224;-64
2024/01/27 02:28:12;;;;;;;25.23;3.47;;;;;;;;;;5029567;28;20205;-64
2024/01/27 02:30:39;;;;;;;15.03;2.90;;;4.70;99.90;;;;;;5035077;28;20494;-65
2024/01/27 02:33:06;;;;;;;14.43;2.83;;;4.60;99.90;;;;;;5010995;28;20599;-64
2024/01/27 02:35:33;;;;;;;9.17;2.20;;;4.70;99.90;;;;;;5035748;28;20201;-65
2024/01/27 02:38:00;;;;;;;18.63;2.80;;;4.60;99.90;;;;;;5023123;28;20214;-64
2024/01/27 02:40:27;;;;;;;14.20;2.80;;;4.60;99.90;;;;;;5036658;28;20193;-64
2024/01/27 02:42:55;;;;;;;18.10;3.00;;;4.60;99.90;;;;;;5029052;28;20565;-64
2024/01/27 02:45:22;;;;;;;14.90;2.80;;;4.70;99.90;;;;;;5039189;28;20235;-65
2024/01/27 02:47:49;;;;;;;12.73;3.67;;;4.70;99.90;;;;;;5041307;28;20496;-65
2024/01/27 02:50:16;;;;;;;17.07;2.63;;;4.80;99.90;;;;;;5004256;28;20247;-65
2024/01/27 02:52:43;;;;;;;7.63;2.10;;;4.60;99.90;;;;;;5030850;28;20761;-65
2024/01/27 02:55:10;;;;;;;13.90;2.03;;;4.60;99.90;;;;;;5033282;28;20205;-64
2024/01/27 02:57:37;;;;;;;10.80;1.90;;;4.70;99.90;;;;;;5039404;28;20199;-64
2024/01/27 03:00:06;;;;;;;15.37;2.77;;;4.60;99.90;;;;;;5026444;28;20211;-65
2024/01/27 03:02:33;;;;;;;9.20;2.57;;;4.60;99.90;;;;;;5040720;28;20233;-65
2024/01/27 03:05:01;;;;;;;12.73;2.83;;;4.60;99.90;;;;;;5002570;28;20226;-65
2024/01/27 03:07:27;;;;;;;15.80;2.53;;;4.70;99.90;;;;;;5028169;28;20254;-65
2024/01/27 03:09:54;;;;;;;13.13;3.03;;;4.60;99.90;;;;;;5038091;28;20204;-65
2024/01/27 03:12:22;;;;;;;6.13;2.20;;;4.60;99.90;;;;;;5038279;28;20294;-64
2024/01/27 03:14:50;;;;;;;12.43;2.33;;;4.60;99.90;;;;;;5010358;28;20326;-65
2024/01/27 03:17:19;;;;;;;14.97;3.20;;;4.70;99.90;;;;;;5041143;28;20581;-64
2024/01/27 03:19:45;;;;;;;13.87;2.30;;;4.60;99.90;;;;;;4995431;28;20244;-65
2024/01/27 03:22:12;;;;;;;14.77;2.20;;;4.60;99.90;;;;;;5036313;28;20207;-64
2024/01/27 03:24:39;;;;;;;14.70;3.27;;;4.60;99.90;;;;;;5022526;28;20823;-65
2024/01/27 03:27:06;;;;;;;16.67;2.53;;;4.60;99.90;;;;;;5037764;28;20694;-65
2024/01/27 03:29:33;;;;;;;14.17;2.57;;;4.60;99.90;;;;;;5022697;28;20792;-65
2024/01/27 03:32:00;;;;;;;13.07;2.23;;;4.60;99.90;;;;;;5040578;28;20200;-64
2024/01/27 03:34:28;;;;;;;13.20;2.63;;;4.60;99.90;;;;;;5025802;28;20208;-64
2024/01/27 03:36:55;;;;;;;26.90;2.60;;;4.60;99.90;;;;;;5007104;28;21365;-65
2024/01/27 03:39:22;;;;;;;9.80;2.03;;;4.50;99.90;;;;;;5024768;28;20862;-65
2024/01/27 03:41:48;;;;;;;10.97;2.03;;;4.50;99.90;;;;;;5036439;28;20295;-64
2024/01/27 03:44:15;;;;;;;16.10;2.30;;;4.60;99.90;;;;;;5028272;28;20208;-65
2024/01/27 03:46:42;;;;;;;14.03;2.60;;;4.60;99.90;;;;;;5036222;28;20258;-65
2024/01/27 03:49:09;;;;;;;17.30;2.87;;;4.60;99.90;;;;;;5034035;28;20192;-64
2024/01/27 03:51:37;;;;;;;16.13;2.37;;;4.60;99.90;;;;;;4993344;28;20575;-65
2024/01/27 03:54:04;;;;;;;19.20;2.57;;;4.50;99.90;;;;;;5026404;28;20204;-65
2024/01/27 03:56:31;;;;;;;10.17;2.27;;;4.50;99.90;;;;;;5036024;28;20219;-65
2024/01/27 03:58:58;;;;;;;10.67;2.13;;;4.40;99.90;;;;;;5037171;28;20197;-65
2024/01/27 04:01:25;;;;;;;10.43;2.43;;;4.40;99.90;;;;;;5024011;28;20237;-64
2024/01/27 04:03:52;;;;;;;14.53;2.37;;;4.40;99.90;;;;;;5036391;28;20290;-65
2024/01/27 04:06:19;;;;;;;13.13;2.13;;;4.40;99.90;;;;;;5015577;28;20240;-64
2024/01/27 04:08:47;;;;;;;11.17;2.37;;;4.40;99.90;;;;;;5005477;28;20308;-65
2024/01/27 04:11:21;;;;;;;15.53;2.37;;;4.30;99.90;;;;;;5033065;28;20200;-65
2024/01/27 04:13:49;;;;;;;18.67;2.13;;;4.30;99.90;;;;;;5031639;28;20691;-65
2024/01/27 04:16:16;;;;;;;11.80;2.70;;;4.30;99.90;;;;;;5027071;28;20208;-65
2024/01/27 04:18:43;;;;;;;14.53;2.90;;;4.30;99.90;;;;;;5031130;28;20432;-65
2024/01/27 04:21:10;;;;;;;8.27;3.10;;;4.30;99.90;;;;;;5023384;28;20491;-64
2024/01/27 04:23:37;;;;;;;16.00;2.73;;;4.20;99.90;;;;;;5001341;28;20318;-64
2024/01/27 04:26:06;;;;;;;13.93;2.80;;;4.20;99.90;;;;;;5026139;28;20231;-65
2024/01/27 04:28:33;;;;;;;13.87;2.60;;;4.60;99.90;;;;;;5034360;28;21011;-64
2024/01/27 04:31:00;;;;;;;11.60;1.77;;;4.20;99.90;;;;;;5024747;28;20213;-65
2024/01/27 04:33:28;;;;;;;14.17;2.63;;;;;;;;;;5033715;28;20557;-65
2024/01/27 04:35:54;;;;;;;13.10;2.13;;;4.20;99.90;;;;;;5030113;28;20598;-65
2024/01/27 04:38:21;;;;;;;11.63;2.47;;;4.20;99.90;;;;;;4991990;28;20212;-65
2024/01/27 04:40:49;;;;;;;18.03;2.50;;;4.20;99.90;;;;;;5023851;28;20424;-64
2024/01/27 04:43:18;;;;;;;11.53;2.63;;;4.20;99.90;;;;;;5036199;28;20689;-65
2024/01/27 04:45:45;;;;;;;17.07;2.67;;;4.20;99.90;;;;;;5031668;28;20197;-65
2024/01/27 04:48:12;;;;;;;14.63;1.90;;;4.20;99.90;;;;;;5027090;28;20211;-64
2024/01/27 04:50:39;;;;;;;11.83;2.37;;;4.20;99.90;;;;;;5030265;28;20193;-65
2024/01/27 04:53:06;;;;;;;11.40;2.53;;;4.20;99.90;;;;;;5004801;28;20756;-65
2024/01/27 04:55:33;;;;;;;8.77;2.13;;;4.20;99.90;;;;;;5022284;28;20199;-65
2024/01/27 04:58:00;;;;;;;10.20;1.83;;;4.20;99.90;;;;;;5035521;28;20204;-64
2024/01/27 05:00:28;;;;;;;11.77;2.33;;;4.20;99.90;;;;;;5034397;28;20201;-65
2024/01/27 05:02:55;;;;;;;11.43;2.83;;;4.20;99.90;;;;;;5022400;28;20570;-65
2024/01/27 05:05:22;;;;;;;7.97;1.87;;;4.10;99.90;;;;;;5034063;28;20206;-64
2024/01/27 05:07:49;;;;;;;9.27;2.20;;;4.10;99.90;;;;;;5034942;28;20379;-64
2024/01/27 05:10:17;;;;;;;9.50;2.00;;;5.60;99.90;;;;;;5005444;28;20218;-65
2024/01/27 05:12:43;;;;;;;13.17;2.10;;;4.10;99.90;;;;;;5016650;28;20193;-64
2024/01/27 05:15:11;;;;;;;10.40;2.10;;;4.00;99.90;;;;;;5036755;28;20207;-64
2024/01/27 05:17:40;;;;;;;7.37;2.37;;;4.10;99.90;;;;;;5024150;28;20204;-65
2024/01/27 05:20:08;;;;;;;10.00;2.00;;;4.00;99.90;;;;;;5024622;28;20201;-65
2024/01/27 05:22:35;;;;;;;8.57;1.93;;;4.10;99.90;;;;;;5031392;28;20189;-65
2024/01/27 05:25:03;;;;;;;13.27;2.20;;;4.00;99.90;;;;;;4996904;28;20215;-65
2024/01/27 05:27:29;;;;;;;13.20;1.97;;;4.10;99.90;;;;;;5026716;28;20228;-65
2024/01/27 05:29:56;;;;;;;19.90;3.00;;;4.10;99.90;;;;;;5033838;28;20201;-65
2024/01/27 05:32:23;;;;;;;9.10;2.33;;;4.00;99.90;;;;;;5032626;28;20963;-64
2024/01/27 05:34:51;;;;;;;10.00;2.63;;;4.00;99.90;;;;;;5022413;28;21023;-64
2024/01/27 05:37:18;;;;;;;15.27;2.67;;;4.00;99.90;;;;;;5033579;28;20205;-64
2024/01/27 05:39:45;;;;;;;9.73;2.53;;;4.00;99.90;;;;;;5019612;28;20625;-65
2024/01/27 05:42:12;;;;;;;7.57;1.80;;;4.00;99.90;;;;;;5001974;28;20212;-64
2024/01/27 05:44:40;;;;;;;14.47;2.10;;;4.10;99.90;;;;;;5022293;28;20202;-64
2024/01/27 05:47:07;;;;;;;7.67;2.13;;;4.00;99.90;;;;;;5032500;28;20229;-64
2024/01/27 05:49:34;;;;;;;8.90;1.90;;;4.10;99.90;;;;;;5022509;28;20666;-65
2024/01/27 05:52:02;;;;;;;16.00;2.17;;;6.80;99.90;;;;;;5032047;28;20821;-64
2024/01/27 05:54:29;;;;;;;16.80;2.77;;;4.00;99.90;;;;;;5025376;28;20193;-64
2024/01/27 05:56:56;;;;;;;17.07;2.37;;;4.00;99.90;;;;;;5000922;28;20205;-64
2024/01/27 05:59:23;;;;;;;17.10;2.30;;;4.00;99.90;;;;;;5024967;28;20205;-64
2024/01/27 06:01:50;;;;;;;16.67;2.67;;;3.90;99.90;;;;;;5031231;28;20234;-64
2024/01/27 06:04:16;;;;;;;11.77;2.17;;;4.00;99.90;;;;;;5024497;28;20203;-65
2024/01/27 06:06:43;;;;;;;6.63;1.87;;;4.00;99.90;;;;;;5022906;28;20321;-64
2024/01/27 06:09:12;;;;;;;12.60;2.73;;;4.00;99.90;;;;;;5036920;28;20743;-65
2024/01/27 06:11:38;;;;;;;8.87;2.17;;;3.90;99.90;;;;;;4991524;28;20406;-65
2024/01/27 06:14:06;;;;;;;11.23;2.03;;;;;;;;;;5037734;28;20223;-64
2024/01/27 06:16:35;;;;;;;11.97;2.50;;;3.90;99.90;;;;;;5013011;28;20214;-64
2024/01/27 06:19:02;;;;;;;5.23;1.73;;;3.90;99.90;;;;;;5021996;28;20719;-64
2024/01/27 06:21:29;;;;;;;12.70;1.97;;;3.90;99.90;;;;;;5025063;28;20677;-64
2024/01/27 06:23:55;;;;;;;12.17;1.93;;;3.90;99.90;;;;;;5037104;28;20207;-64
2024/01/27 06:26:24;;;;;;;11.00;2.53;;;3.80;99.90;;;;;;5026862;28;20201;-64
2024/01/27 06:28:50;;;;;;;10.30;2.43;;;3.90;99.90;;;;;;5005930;28;20213;-65
2024/01/27 06:31:17;;;;;;;12.60;2.00;;;3.90;99.90;;;;;;5023784;28;20258;-65
2024/01/27 06:33:44;;;;;;;13.03;2.37;;;3.90;99.90;;;;;;5033775;28;20197;-65
2024/01/27 06:36:10;;;;;;;9.30;1.93;;;3.90;99.90;;;;;;5021581;28;20686;-65
2024/01/27 06:38:38;;;;;;;6.77;2.00;;;3.90;99.90;;;;;;5041032;28;20209;-64
2024/01/27 06:41:05;;;;;;;9.07;2.30;;;3.90;99.90;;;;;;5023242;28;21133;-65
2024/01/27 06:43:33;;;;;;;6.83;2.20;;;3.80;99.90;;;;;;5007281;28;20205;-65
2024/01/27 06:46:00;;;;;;;5.23;1.47;;;3.80;99.90;;;;;;5024351;28;20231;-64
2024/01/27 06:48:27;;;;;;;12.17;2.07;;;3.80;99.90;;;;;;5038561;28;20337;-65
2024/01/27 06:50:54;;;;;;;8.27;2.67;;;3.80;99.90;;;;;;5014102;28;20202;-65
2024/01/27 06:53:21;;;;;;;7.03;1.53;;;3.80;99.90;;;;;;5039289;28;20747;-65
2024/01/27 06:55:48;;;;;;;11.20;1.97;;;3.80;99.90;;;;;;5039595;28;20200;-64
2024/01/27 06:58:15;;;;;;;8.40;2.13;;;3.80;99.90;;;;;;4997735;28;22066;-64
2024/01/27 07:00:44;;;;;;;7.33;1.73;;;3.80;99.90;;;;;;5032976;28;20205;-65
2024/01/27 07:03:11;;;;;;;18.97;2.57;;;3.80;99.90;;;;;;5034424;28;20927;-64
2024/01/27 07:05:40;;;;;;;7.47;2.30;;;3.80;99.90;;;;;;5038801;28;20196;-64
2024/01/27 07:08:07;;;;;;;10.03;2.27;;;3.70;99.90;;;;;;5021052;28;20348;-65
2024/01/27 07:10:34;;;;;;;10.70;1.73;;;3.60;99.90;;;;;;5039941;28;20199;-64
2024/01/27 07:13:02;;;;;;;5.10;1.73;;;3.60;99.90;;;;;;5027353;28;20517;-65
2024/01/27 07:15:29;;;;;;;8.53;2.10;;;3.50;99.90;;;;;;5006891;28;20208;-65
2024/01/27 07:17:57;;;;;;;13.93;2.30;;;3.50;99.90;;;;;;5024097;28;20283;-64
2024/01/27 07:20:25;;;;;;;8.53;2.03;;;3.50;99.90;;;;;;5035566;28;21141;-64
2024/01/27 07:22:52;;;;;;;10.43;2.43;;;3.50;99.90;;;;;;5016630;28;20326;-64
2024/01/27 07:25:18;;;;;;;12.67;1.93;;;4.00;99.90;;;;;;5037344;28;20208;-64
2024/01/27 07:27:46;;;;;;;11.80;2.40;;;3.50;99.90;;;;;;5036539;28;20229;-64
2024/01/27 07:30:13;;;;;;;8.60;2.40;;;3.40;99.90;;;;;;5004529;28;20505;-64
2024/01/27 07:32:40;;;;;;;11.73;2.30;;;3.50;99.90;;;;;;5021779;28;20200;-64
2024/01/27 07:35:09;;;;;;;8.13;2.27;;;3.50;99.90;;;;;;5025304;28;20804;-64
2024/01/27 07:37:36;;;;;;;8.63;2.60;;;3.50;99.90;;;;;;5025347;28;20202;-65
2024/01/27 07:40:03;;;;;;;10.20;1.90;;;3.60;99.90;;;;;;5013504;28;20209;-64
2024/01/27 07:42:30;;;;;;;17.20;2.40;;;3.50;99.90;;;;;;5043803;28;20592;-64
2024/01/27 07:44:57;;;;;;;8.73;2.27;;;3.60;99.90;;;;;;4995141;28;21412;-64
2024/01/27 07:47:24;;;;;;;9.50;2.17;;;3.60;99.90;;;;;;5027933;28;20316;-65
2024/01/27 07:49:51;;;;;;;11.57;2.27;;;4.00;99.90;;;;;;5037740;28;20208;-64
2024/01/27 07:52:19;;;;;;;6.27;1.90;;;3.70;99.90;;;;;;5028062;28;20849;-64
2024/01/27 07:54:46;;;;;;;7.10;1.73;;;3.60;99.90;;;;;;5032901;28;20661;-64
2024/01/27 07:57:14;;;;;;;5.07;1.90;;;3.70;99.90;;;;;;5028047;28;20234;-64
2024/01/27 07:59:41;;;;;;;10.17;1.93;;;3.60;99.90;;;;;;5028448;28;20422;-64
2024/01/27 08:02:08;;;;;;;9.50;1.83;;;3.60;99.90;;;;;;4981614;28;20229;-64
2024/01/27 08:04:35;;;;;;;13.43;2.50;;;3.60;99.90;;;;;;5012906;28;20491;-64
2024/01/27 08:07:06;;;;;;;11.27;2.47;;;3.60;99.90;;;;;;5036402;28;20231;-64
2024/01/27 08:09:34;;;;;;;14.03;2.33;;;3.60;99.90;;;;;;5023164;28;20335;-64
2024/01/27 08:12:01;;;;;;;9.30;2.70;;;3.50;99.90;;;;;;5016665;28;20203;-64
2024/01/27 08:14:29;;;;;;;9.03;2.43;;;3.60;99.90;;;;;;5036609;28;20205;-64
2024/01/27 08:16:56;;;;;;;5.37;2.27;;;3.60;99.90;;;;;;5010557;28;20210;-64
2024/01/27 08:19:24;;;;;;;11.50;2.23;;;3.60;99.90;;;;;;5016175;28;20322;-65
2024/01/27 08:21:51;;;;;;;16.80;2.40;;;3.60;99.90;;;;;;5036583;28;20333;-64
2024/01/27 08:24:18;;;;;;;9.27;2.37;;;3.70;99.90;;;;;;5030587;28;20231;-64
2024/01/27 08:26:48;;;;;;;11.23;2.33;;;3.70;99.90;;;;;;5037863;28;20746;-65
2024/01/27 08:29:15;;;;;;;9.20;1.87;;;3.70;99.90;;;;;;5039866;28;20557;-64
2024/01/27 08:31:42;;;;;;;12.60;2.50;;;3.70;99.90;;;;;;5003349;28;20205;-65
2024/01/27 08:34:09;;;;;;;12.63;2.57;;;3.70;99.90;;;;;;5025807;28;20203;-64
2024/01/27 08:36:37;;;;;;;8.70;2.27;;;4.60;99.90;;;;;;5016978;28;20323;-64
2024/01/27 08:39:04;;;;;;;10.23;2.60;;;3.80;99.90;;;;;;5026600;28;20225;-64
2024/01/27 08:41:31;;;;;;;14.07;2.30;;;3.80;99.90;;;;;;5021677;28;20550;-65
2024/01/27 08:43:59;;;;;;;16.40;2.67;;;3.90;99.90;;;;;;5035963;28;20216;-64
2024/01/27 08:46:26;;;;;;;9.47;2.13;;;;;;;;;;5028007;28;20201;-64
2024/01/27 08:48:53;;;;;;;9.97;2.43;;;4.20;99.90;;;;;;5006425;28;20472;-64
2024/01/27 08:51:20;;;;;;;16.53;3.17;;;4.00;99.90;;;;;;5037246;28;20671;-64
2024/01/27 08:53:48;;;;;;;9.97;2.73;;;3.90;99.90;;;;;;5031730;28;20802;-65
2024/01/27 08:56:15;;;;;;;9.60;2.20;;;4.10;99.90;;;;;;5026177;28;20351;-64
2024/01/27 08:58:42;;;;;;;10.97;2.57;;;4.20;99.90;;;;;;5026016;28;20197;-64
2024/01/27 09:01:12;;;;;;;6.77;2.47;;;4.10;99.90;;;;;;5016641;28;20257;-65
2024/01/27 09:03:40;;;;;;;9.10;2.50;;;4.20;99.90;;;;;;4994333;28;20221;-65
2024/01/27 09:06:08;;;;;;;11.27;2.50;;;4.10;99.90;;;;;;5014465;28;21923;-64
2024/01/27 09:08:35;;;;;;;10.63;2.33;;;4.20;99.90;;;;;;5034767;28;20908;-64
2024/01/27 09:11:02;;;;;;;12.80;3.03;;;4.20;99.90;;;;;;5019579;28;20208;-64
2024/01/27 09:13:29;;;;;;;9.20;2.40;;;4.30;99.90;;;;;;5025856;28;20207;-64
2024/01/27 09:15:57;;;;;;;11.37;2.30;;;4.20;99.90;;;;;;5032076;28;20210;-64
2024/01/27 09:18:26;;;;;;;11.23;2.27;;;4.30;99.90;;;;;;5000514;28;20217;-65
2024/01/27 09:20:53;;;;;;;11.63;2.70;;;4.30;99.90;;;;;;5019528;28;20200;-64
2024/01/27 09:23:20;;;;;;;8.37;2.43;;;4.50;99.90;;;;;;5027819;28;20212;-64
2024/01/27 09:25:47;;;;;;;9.67;2.97;;;4.40;99.90;;;;;;5023012;28;20206;-64
2024/01/27 09:28:15;;;;;;;10.90;2.63;;;;;;;;;;5017413;28;20216;-65
2024/01/27 09:30:42;;;;;;;13.63;2.60;;;4.50;99.90;;;;;;5031942;28;20219;-64
2024/01/27 09:33:10;;;;;;;9.67;2.57;;;4.60;99.90;;;;;;4995967;28;20233;-65
2024/01/27 09:35:38;;;;;;;14.47;2.90;;;4.50;99.90;;;;;;5004048;28;20209;-64
2024/01/27 09:38:06;;;;;;;7.87;2.43;;;4.50;99.90;;;;;;5033825;28;20598;-64
2024/01/27 09:40:32;;;;;;;11.87;3.03;;;4.60;99.90;;;;;;5028530;28;20201;-65
2024/01/27 09:42:59;;;;;;;11.70;3.13;;;4.60;99.90;;;;;;5024568;28;20625;-65
2024/01/27 09:45:27;;;;;;;10.03;2.57;;;4.60;99.90;;;;;;5033513;28;20201;-65
2024/01/27 09:47:57;;;;;;;10.73;2.17;;;4.70;99.90;;;;;;5026060;28;20224;-64
2024/01/27 09:50:24;;;;;;;9.37;2.40;;;4.70;99.90;;;;;;5008253;28;20246;-64
2024/01/27 09:52:53;;;;;;;8.47;2.83;;;4.70;99.90;;;;;;5038413;28;20251;-64
2024/01/27 09:55:20;;;;;;;11.30;2.77;;;;;;;;;;5037240;28;20453;-64
2024/01/27 09:57:48;;;;;;;10.50;2.83;;;5.40;99.90;;;;;;5030461;28;20844;-64
2024/01/27 10:00:17;;;;;;;13.47;2.83;;;4.90;99.90;;;;;;5018024;28;20205;-64
2024/01/27 10:02:46;;;;;;;12.77;3.40;;;4.90;99.90;;;;;;5035703;28;20574;-64
2024/01/27 10:05:14;;;;;;;8.03;2.17;;;4.90;99.90;;;;;;5000749;28;20365;-64
2024/01/27 10:07:42;;;;;;;10.67;3.07;;;4.90;99.90;;;;;;5029099;28;20221;-64
2024/01/27 10:10:10;;;;;;;16.57;3.27;;;5.00;99.90;;;;;;5020587;28;20208;-64
2024/01/27 10:12:41;;;;;;;8.80;2.87;;;5.00;99.90;;;;;;5029220;28;20210;-64
2024/01/27 10:15:19;;;;;;;5.60;1.87;;;5.00;99.90;;;;;;5034736;28;20721;-65
2024/01/27 10:17:45;;;;;;;10.93;2.63;;;5.10;99.90;;;;;;5023645;28;20999;-64
2024/01/27 10:20:15;;;;;;;12.37;2.43;;;5.10;99.90;;;;;;4995040;28;20200;-65
2024/01/27 10:22:43;;;;;;;20.10;3.10;;;5.20;99.90;;;;;;5023802;28;20201;-65
2024/01/27 10:25:11;;;;;;;7.23;2.77;;;5.20;99.90;;;;;;5025912;28;20200;-65
2024/01/27 10:27:38;;;;;;;12.27;2.73;;;5.20;99.90;;;;;;5035345;28;20204;-64
2024/01/27 10:30:07;;;;;;;12.43;3.07;;;5.30;99.90;;;;;;5019919;28;20573;-64
2024/01/27 10:32:34;;;;;;;11.73;3.23;;;5.40;99.90;;;;;;5033736;28;20322;-65
2024/01/27 10:35:05;;;;;;;6.17;2.90;;;5.10;99.90;;;;;;5014651;28;20202;-65
2024/01/27 10:37:32;;;;;;;8.53;2.60;;;5.50;99.90;;;;;;5016750;28;20205;-65
2024/01/27 10:40:03;;;;;;;12.33;2.60;;;5.50;99.90;;;;;;5038841;28;20227;-65
2024/01/27 10:42:32;;;;;;;14.57;3.27;;;5.50;99.90;;;;;;5039378;28;20406;-65
2024/01/27 10:45:00;;;;;;;15.17;3.00;;;5.60;99.90;;;;;;5028959;28;20224;-65
2024/01/27 10:47:29;;;;;;;12.17;3.10;;;5.60;99.90;;;;;;5039827;28;20376;-65
2024/01/27 10:49:57;;;;;;;17.67;3.97;;;5.60;99.90;;;;;;5026986;28;20228;-65
2024/01/27 10:52:28;;;;;;;11.40;3.50;;;5.70;99.90;;;;;;5003212;28;21343;-65
2024/01/27 10:54:59;;;;;;;9.20;3.30;;;5.60;99.90;;;;;;5040785;28;20205;-65
2024/01/27 10:57:26;;;;;;;13.87;3.63;;;5.70;99.90;;;;;;5021560;28;20487;-64
2024/01/27 10:59:56;;;;;;;11.97;3.40;;;5.80;99.90;;;;;;5025456;28;20880;-64
2024/01/27 11:02:24;;;;;;;14.23;3.47;;;5.80;99.90;;;;;;5035602;28;20232;-65
2024/01/27 11:04:53;;;;;;;6.83;3.10;;;5.80;99.90;;;;;;5033500;28;20201;-64
2024/01/27 11:07:22;;;;;;;15.10;3.80;;;5.90;99.90;;;;;;5006550;28;20916;-64
2024/01/27 11:09:51;;;;;;;14.77;3.10;;;5.90;99.90;;;;;;5031319;28;20906;-65
2024/01/27 11:12:20;;;;;;;7.63;3.27;;;6.00;99.90;;;;;;5024812;28;20201;-65
2024/01/27 11:14:48;;;;;;;12.10;3.23;;;6.80;99.90;;;;;;5028937;28;20236;-65
2024/01/27 11:17:16;;;;;;;10.90;3.77;;;6.00;99.90;;;;;;5036472;28;20220;-65
2024/01/27 11:19:43;;;;;;;12.90;3.23;;;6.00;99.90;;;;;;5018493;28;20708;-65
2024/01/27 11:22:25;;;;;;;15.63;3.57;;;6.10;99.90;;;;;;5004733;28;20585;-65
2024/01/27 11:24:52;;;;;;;11.30;3.87;;;6.10;99.90;;;;;;5018156;28;20200;-64
2024/01/27 11:27:19;;;;;;;15.37;3.90;;;6.10;99.90;;;;;;5011820;28;20229;-65
2024/01/27 11:29:48;;;;;;;15.20;4.60;;;6.10;99.90;;;;;;5026993;28;20229;-65
2024/01/27 11:32:17;;;;;;;16.40;4.37;;;6.10;99.90;;;;;;5016173;28;21070;-65
2024/01/27 11:34:45;;;;;;;15.73;4.17;;;6.20;99.90;;;;;;5024244;28;20436;-65
2024/01/27 11:37:14;;;;;;;10.57;3.50;;;5.70;99.90;;;;;;5000819;28;20677;-65
2024/01/27 11:39:40;;;;;;;11.37;3.63;;;6.30;99.90;;;;;;5031666;28;20208;-65
2024/01/27 11:42:09;;;;;;;10.30;3.67;;;6.60;99.90;;;;;;5033738;28;20394;-65
2024/01/27 11:44:36;;;;;;;11.27;2.97;;;5.00;99.90;;;;;;5030976;28;20197;-65
2024/01/27 11:47:03;;;;;;;11.20;3.40;;;6.40;99.90;;;;;;4982947;28;20974;-65
2024/01/27 11:49:32;;;;;;;12.03;3.47;;;6.40;99.90;;;;;;5022034;28;20229;-65
2024/01/27 11:51:59;;;;;;;11.57;4.10;;;6.40;99.90;;;;;;4999351;28;20669;-65
2024/01/27 11:54:25;;;;;;;11.57;3.60;;;6.90;99.90;;;;;;5027457;28;20319;-65
2024/01/27 11:56:52;;;;;;;11.93;3.80;;;6.40;99.90;;;;;;5035591;28;20201;-65
2024/01/27 11:59:19;;;;;;;8.33;3.03;;;6.50;99.90;;;;;;5028859;28;20608;-65
2024/01/27 12:01:45;;;;;;;12.40;3.27;;;6.50;99.90;;;;;;5012963;28;20245;-65
2024/01/27 12:04:14;;;;;;;19.67;4.27;;;6.50;99.90;;;;;;5016281;28;20999;-65
2024/01/27 12:06:42;;;;;;;12.83;3.73;;;6.60;99.90;;;;;;5031085;28;20204;-65
2024/01/27 12:09:11;;;;;;;12.30;3.50;;;6.60;99.90;;;;;;4994564;28;20270;-65
2024/01/27 12:11:41;;;;;;;21.23;3.97;;;6.10;99.90;;;;;;5020194;28;20666;-65
2024/01/27 12:14:08;;;;;;;15.57;3.80;;;6.60;99.90;;;;;;5032547;28;20197;-64
2024/01/27 12:16:35;;;;;;;14.43;3.17;;;6.60;99.90;;;;;;5016435;28;20661;-65
2024/01/27 12:19:02;;;;;;;10.23;3.53;;;6.60;99.90;;;;;;5033382;28;20206;-65
2024/01/27 12:21:29;;;;;;;16.20;3.40;;;6.70;99.90;;;;;;5024278;28;20315;-65
2024/01/27 12:23:58;;;;;;;13.83;3.47;;;6.70;99.90;;;;;;5002646;28;20212;-64
2024/01/27 12:26:26;;;;;;;9.87;3.70;;;6.70;99.90;;;;;;5019774;28;20714;-65
2024/01/27 12:28:55;;;;;;;12.67;3.23;;;6.80;99.90;;;;;;5036457;28;20231;-65
2024/01/27 12:31:24;;;;;;;12.40;2.83;;;6.80;99.90;;;;;;5023523;28;20282;-65
2024/01/27 12:33:52;;;;;;;12.43;3.40;;;6.80;99.90;;;;;;5036536;28;20213;-65
2024/01/27 12:36:20;;;;;;;12.57;3.23;;;6.80;99.90;;;;;;5018789;28;20201;-65
2024/01/27 12:38:59;;;;;;;10.37;3.40;;;6.90;99.90;;;;;;4964630;28;20314;-65
2024/01/27 12:41:26;;;;;;;15.27;3.53;;;6.90;99.90;;;;;;4992754;28;20201;-65
2024/01/27 12:43:53;;;;;;;14.97;3.70;;;6.90;99.90;;;;;;5020598;28;20211;-65
2024/01/27 12:46:20;;;;;;;11.70;3.20;;;6.90;99.90;;;;;;5027320;28;20443;-65
2024/01/27 12:48:47;;;;;;;14.97;3.27;;;6.90;99.90;;;;;;5022126;28;20641;-65
2024/01/27 12:51:14;;;;;;;6.77;2.80;;;7.00;99.90;;;;;;5013817;28;20197;-65